createdAt,value
2022-11-14T00:01:29.187Z,99152.94
2022-11-14T00:04:30.684Z,99140.56
2022-11-14T00:07:37.205Z,99110.50
2022-11-14T00:10:38.422Z,99044.72
2022-11-14T00:13:45.216Z,99021.91
2022-11-14T00:16:59.116Z,99005.81
2022-11-14T00:20:07.277Z,99025.41
2022-11-14T00:23:14.275Z,99036.31
2022-11-14T00:26:15.630Z,99020.75
2022-11-14T00:29:23.195Z,99018.53
2022-11-14T00:32:24.682Z,98995.50
2022-11-14T00:35:31.240Z,98997.47
2022-11-14T00:38:32.644Z,99008.13
2022-11-14T00:41:39.175Z,99009.72
2022-11-14T00:44:40.463Z,99007.34
2022-11-14T00:47:47.250Z,99003.84
2022-11-14T00:50:48.448Z,99020.38
2022-11-14T00:53:55.189Z,99033.00
2022-11-14T00:57:02.167Z,99049.47
2022-11-14T01:00:02.724Z,99066.13
2022-11-14T01:03:09.189Z,99067.63
2022-11-14T01:06:16.905Z,99075.56
2022-11-14T01:09:25.271Z,99093.19
2022-11-14T01:12:25.565Z,99105.19
2022-11-14T01:15:33.169Z,99126.84
2022-11-14T01:18:41.594Z,99161.41
2022-11-14T01:21:42.178Z,99153.59
2022-11-14T01:24:43.461Z,99129.34
2022-11-14T01:27:50.283Z,99103.91
2022-11-14T01:30:58.282Z,99086.47
2022-11-14T01:34:00.524Z,99082.16
2022-11-14T01:37:08.205Z,99075.06
2022-11-14T01:40:09.020Z,99068.34
2022-11-14T01:43:25.203Z,99054.28
2022-11-14T01:46:45.543Z,99041.28
2022-11-14T01:49:56.269Z,99036.19
2022-11-14T01:53:03.279Z,99035.47
2022-11-14T01:56:14.281Z,99041.19
2022-11-14T01:59:28.182Z,99036.38
2022-11-14T02:02:36.214Z,99025.88
2022-11-14T02:05:37.549Z,99028.53
2022-11-14T02:08:39.191Z,99014.94
2022-11-14T02:11:51.311Z,99029.66
2022-11-14T02:14:54.567Z,99057.22
2022-11-14T02:18:01.180Z,99068.75
2022-11-14T02:21:01.549Z,99091.75
2022-11-14T02:24:08.297Z,99087.38
2022-11-14T02:27:10.824Z,99083.22
2022-11-14T02:30:21.253Z,99094.69
2022-11-14T02:33:30.259Z,99103.09
2022-11-14T02:36:38.278Z,99091.69
2022-11-14T02:39:38.594Z,99088.44
2022-11-14T02:42:46.251Z,99085.75
2022-11-14T02:45:46.576Z,99081.50
2022-11-14T02:48:54.272Z,99097.69
2022-11-14T02:51:54.612Z,99106.84
2022-11-14T02:55:01.263Z,99120.00
2022-11-14T02:58:01.554Z,99125.63
2022-11-14T03:01:20.410Z,99135.44
2022-11-14T03:04:28.245Z,99118.22
2022-11-14T03:07:28.516Z,99119.22
2022-11-14T03:10:37.228Z,99115.06
2022-11-14T03:13:37.964Z,99133.91
2022-11-14T03:16:46.241Z,99136.94
2022-11-14T03:19:46.382Z,99139.91
2022-11-14T03:22:54.181Z,99151.28
2022-11-14T03:26:02.255Z,99149.91
2022-11-14T03:29:09.249Z,99153.53
2022-11-14T03:32:16.215Z,99169.09
2022-11-14T03:35:17.514Z,99178.97
2022-11-14T03:38:26.343Z,99190.63
2022-11-14T03:41:26.548Z,99194.13
2022-11-14T03:44:34.181Z,99205.03
2022-11-14T03:47:41.340Z,99211.28
2022-11-14T03:50:43.882Z,99214.00
2022-11-14T03:53:51.192Z,99207.97
2022-11-14T03:56:52.415Z,99206.91
2022-11-14T03:59:59.173Z,99206.31
2022-11-14T04:03:00.478Z,99222.16
2022-11-14T04:06:07.267Z,99231.22
2022-11-14T04:09:07.757Z,99253.88
2022-11-14T04:12:15.895Z,99277.09
2022-11-14T04:15:17.179Z,99301.16
2022-11-14T04:18:25.152Z,99319.16
2022-11-14T04:21:32.252Z,99317.25
2022-11-14T04:24:40.263Z,99328.16
2022-11-14T04:27:40.504Z,99343.53
2022-11-14T04:30:47.234Z,99349.38
2022-11-14T04:33:54.270Z,99372.22
2022-11-14T04:36:54.492Z,99388.47
2022-11-14T04:40:06.165Z,99392.88
2022-11-14T04:43:06.712Z,99390.84
2022-11-14T04:46:13.510Z,99374.78
2022-11-14T04:49:13.792Z,99368.34
2022-11-14T04:52:21.246Z,99347.34
2022-11-14T04:55:28.163Z,99349.31
2022-11-14T04:58:29.800Z,99361.44
2022-11-14T05:01:38.266Z,99358.34
2022-11-14T05:04:39.569Z,99354.84
2022-11-14T05:07:46.246Z,99366.06
2022-11-14T05:10:47.863Z,99375.75
2022-11-14T05:13:55.254Z,99361.63
2022-11-14T05:17:08.071Z,99350.31
2022-11-14T05:20:15.304Z,99352.44
2022-11-14T05:23:19.525Z,99345.66
2022-11-14T05:26:27.169Z,99343.03
2022-11-14T05:29:34.155Z,99341.63
2022-11-14T05:32:35.493Z,99339.38
2022-11-14T05:35:43.202Z,99342.00
2022-11-14T05:38:52.188Z,99342.75
2022-11-14T05:41:59.169Z,99336.84
2022-11-14T05:44:59.465Z,99328.84
2022-11-14T05:48:07.209Z,99320.63
2022-11-14T05:51:08.891Z,99323.69
2022-11-14T05:54:16.144Z,99325.81
2022-11-14T05:57:23.260Z,99325.56
2022-11-14T06:00:26.674Z,99327.78
2022-11-14T06:03:33.149Z,99322.47
2022-11-14T06:06:33.513Z,99321.81
2022-11-14T06:09:40.129Z,99322.81
2022-11-14T06:12:40.581Z,99321.06
2022-11-14T06:15:47.243Z,99323.31
2022-11-14T06:18:48.498Z,99325.72
2022-11-14T06:21:56.123Z,99308.09
2022-11-14T06:25:03.217Z,99305.16
2022-11-14T06:28:11.201Z,99302.22
2022-11-14T06:31:12.511Z,99298.59
2022-11-14T06:34:21.140Z,99298.69
2022-11-14T06:37:32.539Z,99283.72
2022-11-14T06:40:33.428Z,99281.50
2022-11-14T06:43:40.135Z,99274.44
2022-11-14T06:46:40.451Z,99267.56
2022-11-14T06:49:47.176Z,99262.97
2022-11-14T06:52:48.372Z,99253.53
2022-11-14T06:55:49.155Z,99255.19
2022-11-14T06:59:02.221Z,99237.91
2022-11-14T07:02:02.484Z,99231.41
2022-11-14T07:05:10.128Z,99218.63
2022-11-14T07:08:10.609Z,99193.50
2022-11-14T07:11:19.128Z,99192.41
2022-11-14T07:14:19.379Z,99188.31
2022-11-14T07:17:30.748Z,99191.63
2022-11-14T07:20:32.424Z,99189.44
2022-11-14T07:23:40.221Z,99184.44
2022-11-14T07:26:48.202Z,99178.53
2022-11-14T07:29:55.167Z,99176.56
2022-11-14T07:33:06.211Z,99171.94
2022-11-14T07:36:13.141Z,99182.06
2022-11-14T07:39:20.207Z,99179.03
2022-11-14T07:42:27.121Z,99180.63
2022-11-14T07:45:35.125Z,99185.63
2022-11-14T07:48:37.545Z,99185.03
2022-11-14T07:51:45.129Z,99190.25
2022-11-14T07:54:52.215Z,99188.59
2022-11-14T07:57:55.576Z,99176.00
2022-11-14T08:01:02.346Z,99165.91
2022-11-14T08:04:10.117Z,99161.25
2022-11-14T08:07:17.267Z,99154.34
2022-11-14T08:10:19.185Z,99148.97
2022-11-14T08:13:32.017Z,99151.06
2022-11-14T08:16:33.467Z,99147.63
2022-11-14T08:19:41.124Z,99144.09
2022-11-14T08:22:41.371Z,99146.25
2022-11-14T08:25:48.095Z,99148.72
2022-11-14T08:28:56.219Z,99132.00
2022-11-14T08:32:00.082Z,99134.25
2022-11-14T08:35:07.125Z,99126.84
2022-11-14T08:38:09.516Z,99130.66
2022-11-14T08:41:16.122Z,99131.53
2022-11-14T08:44:17.629Z,99131.50
2022-11-14T08:47:24.219Z,99132.59
2022-11-14T08:50:24.560Z,99128.78
2022-11-14T08:53:31.126Z,99121.16
2022-11-14T08:56:38.212Z,99106.41
2022-11-14T08:59:45.121Z,99090.47
2022-11-14T09:02:53.150Z,99093.22
2022-11-14T09:05:55.137Z,99093.03
2022-11-14T09:09:02.217Z,99101.72
2022-11-14T09:12:03.395Z,99098.00
2022-11-14T09:15:10.117Z,99099.25
2022-11-14T09:18:25.185Z,99100.66
2022-11-14T09:21:32.100Z,99085.69
2022-11-14T09:24:32.586Z,99089.75
2022-11-14T09:27:40.103Z,99092.22
2022-11-14T09:30:49.185Z,99085.94
2022-11-14T09:33:57.212Z,99085.13
2022-11-14T09:36:57.478Z,99080.19
2022-11-14T09:40:04.212Z,99089.41
2022-11-14T09:43:38.102Z,99082.34
2022-11-14T09:46:46.116Z,99085.91
2022-11-14T09:49:59.198Z,99085.00
2022-11-14T09:53:11.117Z,99090.56
2022-11-14T09:56:18.092Z,99077.47
2022-11-14T09:59:18.675Z,99077.47
2022-11-14T10:02:28.245Z,99076.66
2022-11-14T10:05:51.820Z,99069.88
2022-11-14T10:09:19.211Z,99075.53
2022-11-14T10:12:54.105Z,99072.56
2022-11-14T10:16:07.101Z,99093.00
2022-11-14T10:19:27.663Z,99091.94
2022-11-14T10:23:01.598Z,99080.47
2022-11-14T10:26:13.930Z,99068.19
2022-11-14T10:29:56.116Z,99066.00
2022-11-14T10:33:22.217Z,99058.03
2022-11-14T10:36:37.177Z,99052.06
2022-11-14T10:39:55.119Z,99050.47
2022-11-14T10:43:10.101Z,99051.84
2022-11-14T10:46:26.075Z,99061.66
2022-11-14T10:49:51.103Z,99058.38
2022-11-14T10:53:05.100Z,99045.25
2022-11-14T10:56:06.512Z,99045.53
2022-11-14T10:59:14.098Z,99056.22
2022-11-14T11:02:14.522Z,99037.34
2022-11-14T11:05:25.182Z,99045.00
2022-11-14T11:08:48.961Z,99035.41
2022-11-14T11:12:06.134Z,99032.47
2022-11-14T11:15:21.452Z,99038.78
2022-11-14T11:18:35.353Z,99032.75
2022-11-14T11:21:53.517Z,99036.84
2022-11-14T11:25:00.103Z,99034.97
2022-11-14T11:28:27.113Z,99040.66
2022-11-14T11:31:27.377Z,99045.25
2022-11-14T11:34:42.207Z,99045.88
2022-11-14T11:38:19.097Z,99044.50
2022-11-14T11:42:07.679Z,99029.75
2022-11-14T11:45:13.179Z,99041.50
2022-11-14T11:48:37.258Z,99047.22
2022-11-14T11:51:42.193Z,99039.88
2022-11-14T11:55:31.551Z,99037.16
2022-11-14T11:58:46.254Z,99038.78
2022-11-14T12:01:53.251Z,99038.22
2022-11-14T12:04:56.235Z,99042.56
2022-11-14T12:08:21.229Z,99039.84
2022-11-14T12:11:25.676Z,99035.53
2022-11-14T12:14:56.118Z,99037.41
2022-11-14T12:18:12.051Z,99044.50
2022-11-14T12:21:29.264Z,99042.34
2022-11-14T12:24:53.650Z,99047.78
2022-11-14T12:28:24.127Z,99040.16
2022-11-14T12:31:33.183Z,99037.09
2022-11-14T12:34:49.162Z,99041.53
2022-11-14T12:38:02.175Z,99047.47
2022-11-14T12:41:04.078Z,99047.47
2022-11-14T12:44:43.157Z,99052.38
2022-11-14T12:48:26.911Z,99055.56
2022-11-14T12:51:40.094Z,99058.38
2022-11-14T12:54:57.278Z,99065.13
2022-11-14T12:58:19.454Z,99073.41
2022-11-14T13:01:33.208Z,99079.16
2022-11-14T13:04:58.196Z,99084.06
2022-11-14T13:08:31.706Z,99095.25
2022-11-14T13:12:20.108Z,99094.09
2022-11-14T13:15:56.254Z,99092.78
2022-11-14T13:19:32.253Z,99104.25
2022-11-14T13:22:41.293Z,99100.81
2022-11-14T13:25:48.189Z,99112.50
2022-11-14T13:28:50.501Z,99120.16
2022-11-14T13:32:01.174Z,99120.50
2022-11-14T13:35:13.141Z,99120.00
2022-11-14T13:38:41.576Z,99130.38
2022-11-14T13:42:18.185Z,99134.41
2022-11-14T13:46:01.196Z,99141.50
2022-11-14T13:49:24.583Z,99140.13
2022-11-14T13:52:32.116Z,99138.69
2022-11-14T13:55:56.131Z,99141.97
2022-11-14T13:59:29.265Z,99154.50
2022-11-14T14:02:35.561Z,99162.91
2022-11-14T14:06:05.331Z,99173.25
2022-11-14T14:09:12.674Z,99177.34
2022-11-14T14:12:27.093Z,99174.88
2022-11-14T14:15:46.755Z,99184.13
2022-11-14T14:19:25.737Z,99175.22
2022-11-14T14:22:26.475Z,99186.88
2022-11-14T14:25:59.189Z,99197.19
2022-11-14T14:29:14.137Z,99195.28
2022-11-14T14:32:29.193Z,99195.28
2022-11-14T14:35:40.356Z,99208.50
2022-11-14T14:38:49.109Z,99207.88
2022-11-14T14:41:58.070Z,99211.56
2022-11-14T14:44:58.496Z,99210.16
2022-11-14T14:48:15.172Z,99219.50
2022-11-14T14:51:22.483Z,99231.81
2022-11-14T14:54:32.188Z,99227.00
2022-11-14T14:57:33.639Z,99222.97
2022-11-14T15:00:41.172Z,99235.47
2022-11-14T15:03:46.523Z,99239.69
2022-11-14T15:06:55.233Z,99241.78
2022-11-14T15:10:09.643Z,99241.78
2022-11-14T15:13:23.167Z,99250.06
2022-11-14T15:16:24.572Z,99253.03
2022-11-14T15:19:35.152Z,99251.72
2022-11-14T15:22:36.629Z,99254.31
2022-11-14T15:25:45.172Z,99260.25
2022-11-14T15:28:45.564Z,99265.19
2022-11-14T15:32:12.169Z,99263.19
2022-11-14T15:35:37.087Z,99258.84
2022-11-14T15:38:46.424Z,99270.19
2022-11-14T15:41:54.057Z,99263.50
2022-11-14T15:44:56.151Z,99264.06
2022-11-14T15:48:14.057Z,99266.72
2022-11-14T15:51:14.620Z,99267.31
2022-11-14T15:54:39.085Z,99269.53
2022-11-14T15:57:52.076Z,99269.53
2022-11-14T16:01:07.500Z,99276.34
2022-11-14T16:04:23.148Z,99279.66
2022-11-14T16:07:34.814Z,99278.56
2022-11-14T16:10:43.137Z,99274.13
2022-11-14T16:13:51.151Z,99276.19
2022-11-14T16:16:51.382Z,99272.38
2022-11-14T16:19:59.058Z,99270.75
2022-11-14T16:23:07.118Z,99269.69
2022-11-14T16:26:07.428Z,99267.97
2022-11-14T16:29:14.169Z,99277.81
2022-11-14T16:32:24.168Z,99277.75
2022-11-14T16:35:26.855Z,99289.66
2022-11-14T16:38:34.042Z,99292.97
2022-11-14T16:41:34.457Z,99290.13
2022-11-14T16:44:45.093Z,99300.22
2022-11-14T16:47:49.209Z,99287.66
2022-11-14T16:50:57.026Z,99281.63
2022-11-14T16:53:58.070Z,99281.84
2022-11-14T16:57:05.148Z,99282.66
2022-11-14T17:00:09.175Z,99279.69
2022-11-14T17:03:16.150Z,99282.84
2022-11-14T17:06:17.544Z,99286.06
2022-11-14T17:09:28.152Z,99284.13
2022-11-14T17:12:29.741Z,99288.69
2022-11-14T17:15:39.161Z,99284.34
2022-11-14T17:18:53.990Z,99280.38
2022-11-14T17:22:02.174Z,99276.63
2022-11-14T17:25:09.045Z,99285.16
2022-11-14T17:28:16.251Z,99284.56
2022-11-14T17:31:18.115Z,99281.81
2022-11-14T17:34:26.169Z,99282.53
2022-11-14T17:37:26.588Z,99283.56
2022-11-14T17:40:34.166Z,99281.69
2022-11-14T17:43:38.992Z,99277.09
2022-11-14T17:46:48.157Z,99263.94
2022-11-14T17:49:48.488Z,99258.28
2022-11-14T17:52:55.074Z,99257.56
2022-11-14T17:56:03.519Z,99257.25
2022-11-14T17:59:04.128Z,99249.94
2022-11-14T18:02:11.192Z,99252.53
2022-11-14T18:05:12.592Z,99246.31
2022-11-14T18:08:20.090Z,99247.22
2022-11-14T18:11:23.586Z,99241.94
2022-11-14T18:14:30.148Z,99246.00
2022-11-14T18:17:30.467Z,99250.69
2022-11-14T18:20:37.055Z,99243.09
2022-11-14T18:23:39.754Z,99256.09
2022-11-14T18:26:47.136Z,99247.94
2022-11-14T18:29:47.440Z,99239.38
2022-11-14T18:32:55.155Z,99236.47
2022-11-14T18:36:16.114Z,99242.34
2022-11-14T18:39:23.154Z,99249.28
2022-11-14T18:42:24.704Z,99238.41
2022-11-14T18:45:31.071Z,99234.91
2022-11-14T18:48:39.147Z,99233.63
2022-11-14T18:51:50.056Z,99224.97
2022-11-14T18:54:57.039Z,99229.78
2022-11-14T18:57:58.539Z,99224.72
2022-11-14T19:01:05.108Z,99228.06
2022-11-14T19:04:16.122Z,99229.69
2022-11-14T19:07:24.087Z,99227.41
2022-11-14T19:10:31.035Z,99231.28
2022-11-14T19:13:34.631Z,99233.22
2022-11-14T19:16:43.113Z,99235.34
2022-11-14T19:19:50.144Z,99233.72
2022-11-14T19:22:57.031Z,99230.66
2022-11-14T19:25:57.513Z,99228.94
2022-11-14T19:29:05.138Z,99219.06
2022-11-14T19:32:06.859Z,99221.69
2022-11-14T19:35:20.239Z,99229.16
2022-11-14T19:38:28.150Z,99224.97
2022-11-14T19:41:38.045Z,99234.56
2022-11-14T19:44:45.056Z,99223.94
2022-11-14T19:47:46.384Z,99215.25
2022-11-14T19:50:54.136Z,99218.41
2022-11-14T19:53:55.320Z,99209.63
2022-11-14T19:57:02.069Z,99223.16
2022-11-14T20:00:09.186Z,99224.28
2022-11-14T20:03:09.448Z,99223.19
2022-11-14T20:06:25.051Z,99211.34
2022-11-14T20:09:26.429Z,99216.59
2022-11-14T20:12:33.125Z,99208.13
2022-11-14T20:15:33.400Z,99202.69
2022-11-14T20:18:40.060Z,99205.00
2022-11-14T20:21:42.458Z,99207.19
2022-11-14T20:24:49.073Z,99203.22
2022-11-14T20:27:57.007Z,99202.56
2022-11-14T20:31:10.061Z,99196.84
2022-11-14T20:34:17.114Z,99200.47
2022-11-14T20:37:17.333Z,99199.97
2022-11-14T20:40:25.098Z,99197.19
2022-11-14T20:43:27.147Z,99195.50
2022-11-14T20:46:35.123Z,99188.13
2022-11-14T20:49:43.069Z,99192.06
2022-11-14T20:52:50.118Z,99192.81
2022-11-14T20:56:02.026Z,99196.84
2022-11-14T20:59:10.067Z,99183.69
2022-11-14T21:02:21.208Z,99180.56
2022-11-14T21:05:21.397Z,99181.53
2022-11-14T21:08:28.360Z,99175.94
2022-11-14T21:11:28.470Z,99184.19
2022-11-14T21:14:35.001Z,99182.38
2022-11-14T21:17:36.410Z,99186.22
2022-11-14T21:20:43.026Z,99182.44
2022-11-14T21:23:44.421Z,99179.22
2022-11-14T21:26:52.097Z,99185.66
2022-11-14T21:29:52.393Z,99191.91
2022-11-14T21:33:02.013Z,99189.88
2022-11-14T21:36:30.183Z,99185.13
2022-11-14T21:39:29.298Z,99192.59
2022-11-14T21:42:37.144Z,99180.91
2022-11-14T21:45:45.026Z,99185.81
2022-11-14T21:48:55.120Z,99179.56
2022-11-14T21:52:02.193Z,99183.91
2022-11-14T21:55:02.412Z,99178.09
2022-11-14T21:58:08.790Z,99171.44
2022-11-14T22:01:16.567Z,99169.16
2022-11-14T22:04:23.135Z,99163.84
2022-11-14T22:07:23.492Z,99171.56
2022-11-14T22:10:31.005Z,99173.56
2022-11-14T22:13:32.753Z,99171.13
2022-11-14T22:16:40.110Z,99168.59
2022-11-14T22:19:40.401Z,99171.91
2022-11-14T22:22:48.017Z,99163.47
2022-11-14T22:25:56.105Z,99163.97
2022-11-14T22:28:56.263Z,99168.41
2022-11-14T22:32:04.016Z,99166.44
2022-11-14T22:35:04.338Z,99164.63
2022-11-14T22:38:11.098Z,99161.34
2022-11-14T22:41:32.677Z,99162.97
2022-11-14T22:44:40.012Z,99164.13
2022-11-14T22:47:40.235Z,99162.66
2022-11-14T22:50:47.007Z,99162.34
2022-11-14T22:53:59.133Z,99154.13
2022-11-14T22:57:05.994Z,99163.88
2022-11-14T23:00:13.036Z,99162.34
2022-11-14T23:03:19.085Z,99171.38
2022-11-14T23:06:27.996Z,99164.63
2022-11-14T23:09:30.882Z,99161.34
2022-11-14T23:12:37.996Z,99167.25
2022-11-14T23:15:38.507Z,99167.09
2022-11-14T23:18:46.120Z,99166.59
2022-11-14T23:21:59.087Z,99166.78
2022-11-14T23:25:06.088Z,99166.59
2022-11-14T23:28:13.094Z,99171.31
2022-11-14T23:31:14.875Z,99168.25
2022-11-14T23:34:22.984Z,99164.53
2022-11-14T23:37:24.271Z,99165.28
2022-11-14T23:40:31.008Z,99163.81
2022-11-14T23:43:31.872Z,99169.41
2022-11-14T23:46:39.991Z,99169.91
2022-11-14T23:49:47.087Z,99165.06
2022-11-14T23:52:47.377Z,99175.91
2022-11-14T23:56:05.993Z,99173.56
2022-11-14T23:59:06.407Z,99177.47
